sensor_id;sensor_type;location;lat;lon;timestamp;P1;durP1;ratioP1;P2;durP2;ratioP2
19043;SDS011;9654;52.302;8.120;2023-02-28T00:00:11;14.93;;;8.40;;
19043;SDS011;9654;52.302;8.120;2023-02-28T00:02:40;13.23;;;7.50;;
19043;SDS011;9654;52.302;8.120;2023-02-28T00:05:08;14.13;;;7.63;;
19043;SDS011;9654;52.302;8.120;2023-02-28T00:07:37;15.10;;;8.00;;
19043;SDS011;9654;52.302;8.120;2023-02-28T00:10:05;13.30;;;7.53;;
19043;SDS011;9654;52.302;8.120;2023-02-28T00:12:33;14.63;;;7.57;;
19043;SDS011;9654;52.302;8.120;2023-02-28T00:15:00;18.73;;;9.03;;
19043;SDS011;9654;52.302;8.120;2023-02-28T00:17:27;14.23;;;8.33;;
19043;SDS011;9654;52.302;8.120;2023-02-28T00:19:54;18.70;;;10.27;;
19043;SDS011;9654;52.302;8.120;2023-02-28T00:22:21;13.27;;;8.13;;
19043;SDS011;9654;52.302;8.120;2023-02-28T00:24:49;14.77;;;8.83;;
19043;SDS011;9654;52.302;8.120;2023-02-28T00:27:16;17.23;;;8.53;;
19043;SDS011;9654;52.302;8.120;2023-02-28T00:29:43;12.70;;;7.40;;
19043;SDS011;9654;52.302;8.120;2023-02-28T00:32:12;15.97;;;8.43;;
19043;SDS011;9654;52.302;8.120;2023-02-28T00:34:39;20.77;;;9.03;;
19043;SDS011;9654;52.302;8.120;2023-02-28T00:37:06;13.83;;;8.30;;
19043;SDS011;9654;52.302;8.120;2023-02-28T00:39:36;15.93;;;7.83;;
19043;SDS011;9654;52.302;8.120;2023-02-28T00:42:05;21.27;;;9.87;;
19043;SDS011;9654;52.302;8.120;2023-02-28T00:44:33;16.83;;;8.67;;
19043;SDS011;9654;52.302;8.120;2023-02-28T00:47:00;12.27;;;8.07;;
19043;SDS011;9654;52.302;8.120;2023-02-28T00:49:27;16.17;;;8.00;;
19043;SDS011;9654;52.302;8.120;2023-02-28T00:51:54;15.23;;;8.73;;
19043;SDS011;9654;52.302;8.120;2023-02-28T00:54:22;12.67;;;7.73;;
19043;SDS011;9654;52.302;8.120;2023-02-28T00:56:49;11.80;;;7.47;;
19043;SDS011;9654;52.302;8.120;2023-02-28T00:59:18;16.77;;;8.33;;
19043;SDS011;9654;52.302;8.120;2023-02-28T01:01:45;18.43;;;8.13;;
19043;SDS011;9654;52.302;8.120;2023-02-28T01:04:12;13.70;;;7.87;;
19043;SDS011;9654;52.302;8.120;2023-02-28T01:06:40;14.60;;;7.40;;
19043;SDS011;9654;52.302;8.120;2023-02-28T01:09:07;13.10;;;6.80;;
19043;SDS011;9654;52.302;8.120;2023-02-28T01:11:34;15.47;;;7.60;;
19043;SDS011;9654;52.302;8.120;2023-02-28T01:14:02;12.60;;;6.83;;
19043;SDS011;9654;52.302;8.120;2023-02-28T01:16:31;9.87;;;6.40;;
19043;SDS011;9654;52.302;8.120;2023-02-28T01:18:58;11.43;;;7.27;;
19043;SDS011;9654;52.302;8.120;2023-02-28T01:21:25;11.27;;;6.87;;
19043;SDS011;9654;52.302;8.120;2023-02-28T01:23:51;12.07;;;6.57;;
19043;SDS011;9654;52.302;8.120;2023-02-28T01:26:19;8.43;;;6.23;;
19043;SDS011;9654;52.302;8.120;2023-02-28T01:28:47;13.20;;;7.13;;
19043;SDS011;9654;52.302;8.120;2023-02-28T01:31:15;11.43;;;6.87;;
19043;SDS011;9654;52.302;8.120;2023-02-28T01:33:44;15.10;;;7.67;;
19043;SDS011;9654;52.302;8.120;2023-02-28T01:36:13;15.13;;;7.63;;
19043;SDS011;9654;52.302;8.120;2023-02-28T01:38:41;16.93;;;7.23;;
19043;SDS011;9654;52.302;8.120;2023-02-28T01:41:10;11.40;;;7.50;;
19043;SDS011;9654;52.302;8.120;2023-02-28T01:43:55;12.70;;;7.70;;
19043;SDS011;9654;52.302;8.120;2023-02-28T01:46:28;14.77;;;7.80;;
19043;SDS011;9654;52.302;8.120;2023-02-28T01:48:59;10.10;;;7.00;;
19043;SDS011;9654;52.302;8.120;2023-02-28T01:51:31;12.53;;;7.20;;
19043;SDS011;9654;52.302;8.120;2023-02-28T01:54:03;12.23;;;6.93;;
19043;SDS011;9654;52.302;8.120;2023-02-28T01:56:38;13.57;;;7.27;;
19043;SDS011;9654;52.302;8.120;2023-02-28T01:59:08;10.07;;;6.50;;
19043;SDS011;9654;52.302;8.120;2023-02-28T02:01:36;13.43;;;7.17;;
19043;SDS011;9654;52.302;8.120;2023-02-28T02:04:04;11.63;;;6.93;;
19043;SDS011;9654;52.302;8.120;2023-02-28T02:06:34;12.50;;;7.20;;
19043;SDS011;9654;52.302;8.120;2023-02-28T02:09:04;15.00;;;8.70;;
19043;SDS011;9654;52.302;8.120;2023-02-28T02:11:31;13.97;;;7.43;;
19043;SDS011;9654;52.302;8.120;2023-02-28T02:14:08;12.00;;;7.60;;
19043;SDS011;9654;52.302;8.120;2023-02-28T02:16:53;17.70;;;7.80;;
19043;SDS011;9654;52.302;8.120;2023-02-28T02:22:37;14.23;;;8.03;;
19043;SDS011;9654;52.302;8.120;2023-02-28T02:25:27;12.93;;;7.73;;
19043;SDS011;9654;52.302;8.120;2023-02-28T02:28:02;11.73;;;7.17;;
19043;SDS011;9654;52.302;8.120;2023-02-28T02:31:02;14.93;;;8.10;;
19043;SDS011;9654;52.302;8.120;2023-02-28T02:36:43;14.83;;;7.50;;
19043;SDS011;9654;52.302;8.120;2023-02-28T02:39:15;16.47;;;7.67;;
19043;SDS011;9654;52.302;8.120;2023-02-28T02:41:47;10.20;;;6.60;;
19043;SDS011;9654;52.302;8.120;2023-02-28T02:44:18;10.87;;;6.13;;
19043;SDS011;9654;52.302;8.120;2023-02-28T02:46:50;12.40;;;7.03;;
19043;SDS011;9654;52.302;8.120;2023-02-28T02:49:21;10.60;;;5.87;;
19043;SDS011;9654;52.302;8.120;2023-02-28T02:51:50;11.03;;;7.10;;
19043;SDS011;9654;52.302;8.120;2023-02-28T02:54:20;15.57;;;7.00;;
19043;SDS011;9654;52.302;8.120;2023-02-28T02:56:52;8.97;;;6.00;;
19043;SDS011;9654;52.302;8.120;2023-02-28T02:59:20;10.97;;;6.97;;
19043;SDS011;9654;52.302;8.120;2023-02-28T03:01:49;13.03;;;7.03;;
19043;SDS011;9654;52.302;8.120;2023-02-28T03:04:19;9.67;;;7.00;;
19043;SDS011;9654;52.302;8.120;2023-02-28T03:06:49;12.30;;;7.13;;
19043;SDS011;9654;52.302;8.120;2023-02-28T03:09:19;9.83;;;7.00;;
19043;SDS011;9654;52.302;8.120;2023-02-28T03:11:46;10.37;;;6.20;;
19043;SDS011;9654;52.302;8.120;2023-02-28T03:14:24;9.40;;;6.27;;
19043;SDS011;9654;52.302;8.120;2023-02-28T03:17:00;12.37;;;6.07;;
19043;SDS011;9654;52.302;8.120;2023-02-28T03:19:54;14.77;;;6.70;;
19043;SDS011;9654;52.302;8.120;2023-02-28T03:22:36;10.03;;;6.70;;
19043;SDS011;9654;52.302;8.120;2023-02-28T03:25:19;12.73;;;6.53;;
19043;SDS011;9654;52.302;8.120;2023-02-28T03:27:53;10.37;;;6.50;;
19043;SDS011;9654;52.302;8.120;2023-02-28T03:30:28;12.73;;;6.40;;
19043;SDS011;9654;52.302;8.120;2023-02-28T03:33:03;10.60;;;6.33;;
19043;SDS011;9654;52.302;8.120;2023-02-28T03:35:36;8.77;;;5.33;;
19043;SDS011;9654;52.302;8.120;2023-02-28T03:38:05;7.53;;;5.60;;
19043;SDS011;9654;52.302;8.120;2023-02-28T03:40:39;11.37;;;7.00;;
19043;SDS011;9654;52.302;8.120;2023-02-28T03:43:12;10.50;;;5.73;;
19043;SDS011;9654;52.302;8.120;2023-02-28T03:45:54;9.03;;;5.90;;
19043;SDS011;9654;52.302;8.120;2023-02-28T03:48:23;10.60;;;5.87;;
19043;SDS011;9654;52.302;8.120;2023-02-28T03:50:55;10.17;;;6.13;;
19043;SDS011;9654;52.302;8.120;2023-02-28T03:53:25;11.23;;;6.27;;
19043;SDS011;9654;52.302;8.120;2023-02-28T03:55:55;9.97;;;5.67;;
19043;SDS011;9654;52.302;8.120;2023-02-28T03:58:25;9.97;;;5.93;;
19043;SDS011;9654;52.302;8.120;2023-02-28T04:00:58;11.70;;;6.03;;
19043;SDS011;9654;52.302;8.120;2023-02-28T04:03:34;12.13;;;6.63;;
19043;SDS011;9654;52.302;8.120;2023-02-28T04:06:04;8.07;;;5.73;;
19043;SDS011;9654;52.302;8.120;2023-02-28T04:08:34;8.50;;;5.53;;
19043;SDS011;9654;52.302;8.120;2023-02-28T04:11:01;10.67;;;5.93;;
19043;SDS011;9654;52.302;8.120;2023-02-28T04:13:32;8.10;;;5.40;;
19043;SDS011;9654;52.302;8.120;2023-02-28T04:15:59;15.43;;;6.27;;
19043;SDS011;9654;52.302;8.120;2023-02-28T04:18:26;10.77;;;6.10;;
19043;SDS011;9654;52.302;8.120;2023-02-28T04:20:53;8.50;;;5.60;;
19043;SDS011;9654;52.302;8.120;2023-02-28T04:23:21;12.47;;;6.13;;
19043;SDS011;9654;52.302;8.120;2023-02-28T04:25:47;7.73;;;4.97;;
19043;SDS011;9654;52.302;8.120;2023-02-28T04:28:16;9.43;;;5.87;;
19043;SDS011;9654;52.302;8.120;2023-02-28T04:30:42;8.97;;;5.20;;
19043;SDS011;9654;52.302;8.120;2023-02-28T04:33:09;9.30;;;5.60;;
19043;SDS011;9654;52.302;8.120;2023-02-28T04:35:36;9.93;;;5.47;;
19043;SDS011;9654;52.302;8.120;2023-02-28T04:38:03;8.77;;;5.60;;
19043;SDS011;9654;52.302;8.120;2023-02-28T04:40:31;10.77;;;5.33;;
19043;SDS011;9654;52.302;8.120;2023-02-28T04:42:58;10.73;;;5.93;;
19043;SDS011;9654;52.302;8.120;2023-02-28T04:45:24;10.37;;;5.77;;
19043;SDS011;9654;52.302;8.120;2023-02-28T04:47:51;10.37;;;5.80;;
19043;SDS011;9654;52.302;8.120;2023-02-28T04:50:18;12.17;;;6.00;;
19043;SDS011;9654;52.302;8.120;2023-02-28T04:52:45;11.80;;;6.43;;
19043;SDS011;9654;52.302;8.120;2023-02-28T04:55:12;13.03;;;6.40;;
19043;SDS011;9654;52.302;8.120;2023-02-28T04:57:40;12.43;;;6.63;;
19043;SDS011;9654;52.302;8.120;2023-02-28T05:00:08;11.30;;;6.33;;
19043;SDS011;9654;52.302;8.120;2023-02-28T05:02:36;10.87;;;5.73;;
19043;SDS011;9654;52.302;8.120;2023-02-28T05:05:04;8.57;;;5.20;;
19043;SDS011;9654;52.302;8.120;2023-02-28T05:07:31;11.30;;;6.27;;
19043;SDS011;9654;52.302;8.120;2023-02-28T05:09:58;9.47;;;5.30;;
19043;SDS011;9654;52.302;8.120;2023-02-28T05:12:24;8.87;;;5.10;;
19043;SDS011;9654;52.302;8.120;2023-02-28T05:14:52;7.53;;;5.43;;
19043;SDS011;9654;52.302;8.120;2023-02-28T05:17:19;11.63;;;6.47;;
19043;SDS011;9654;52.302;8.120;2023-02-28T05:19:46;9.73;;;5.90;;
19043;SDS011;9654;52.302;8.120;2023-02-28T05:22:13;10.67;;;6.03;;
19043;SDS011;9654;52.302;8.120;2023-02-28T05:24:41;9.13;;;5.43;;
19043;SDS011;9654;52.302;8.120;2023-02-28T05:27:08;11.77;;;6.70;;
19043;SDS011;9654;52.302;8.120;2023-02-28T05:29:35;11.67;;;6.07;;
19043;SDS011;9654;52.302;8.120;2023-02-28T05:32:08;11.30;;;5.93;;
19043;SDS011;9654;52.302;8.120;2023-02-28T05:34:35;9.83;;;6.17;;
19043;SDS011;9654;52.302;8.120;2023-02-28T05:37:02;10.73;;;7.47;;
19043;SDS011;9654;52.302;8.120;2023-02-28T05:39:29;12.10;;;6.43;;
19043;SDS011;9654;52.302;8.120;2023-02-28T05:41:56;9.63;;;6.00;;
19043;SDS011;9654;52.302;8.120;2023-02-28T05:44:23;10.67;;;6.50;;
19043;SDS011;9654;52.302;8.120;2023-02-28T05:46:50;9.13;;;5.83;;
19043;SDS011;9654;52.302;8.120;2023-02-28T05:49:18;13.13;;;6.43;;
19043;SDS011;9654;52.302;8.120;2023-02-28T05:51:45;7.53;;;5.73;;
19043;SDS011;9654;52.302;8.120;2023-02-28T05:54:12;12.13;;;6.43;;
19043;SDS011;9654;52.302;8.120;2023-02-28T05:56:39;10.50;;;5.83;;
19043;SDS011;9654;52.302;8.120;2023-02-28T05:59:08;15.13;;;7.00;;
19043;SDS011;9654;52.302;8.120;2023-02-28T06:01:36;9.93;;;6.30;;
19043;SDS011;9654;52.302;8.120;2023-02-28T06:04:05;10.47;;;6.53;;
19043;SDS011;9654;52.302;8.120;2023-02-28T06:06:36;13.60;;;6.83;;
19043;SDS011;9654;52.302;8.120;2023-02-28T06:09:04;12.33;;;6.43;;
19043;SDS011;9654;52.302;8.120;2023-02-28T06:11:31;10.73;;;6.27;;
19043;SDS011;9654;52.302;8.120;2023-02-28T06:13:59;12.40;;;6.50;;
19043;SDS011;9654;52.302;8.120;2023-02-28T06:16:26;10.30;;;6.37;;
19043;SDS011;9654;52.302;8.120;2023-02-28T06:18:54;12.37;;;6.70;;
19043;SDS011;9654;52.302;8.120;2023-02-28T06:21:23;11.87;;;6.57;;
19043;SDS011;9654;52.302;8.120;2023-02-28T06:23:51;10.53;;;6.80;;
19043;SDS011;9654;52.302;8.120;2023-02-28T06:26:18;10.53;;;6.17;;
19043;SDS011;9654;52.302;8.120;2023-02-28T06:28:46;10.67;;;6.93;;
19043;SDS011;9654;52.302;8.120;2023-02-28T06:31:14;9.90;;;6.20;;
19043;SDS011;9654;52.302;8.120;2023-02-28T06:33:43;12.63;;;5.90;;
19043;SDS011;9654;52.302;8.120;2023-02-28T06:36:10;10.90;;;6.40;;
19043;SDS011;9654;52.302;8.120;2023-02-28T06:38:38;10.90;;;6.37;;
19043;SDS011;9654;52.302;8.120;2023-02-28T06:41:07;13.77;;;6.97;;
19043;SDS011;9654;52.302;8.120;2023-02-28T06:43:35;10.80;;;6.73;;
19043;SDS011;9654;52.302;8.120;2023-02-28T06:46:05;10.27;;;6.70;;
19043;SDS011;9654;52.302;8.120;2023-02-28T06:48:33;10.43;;;5.67;;
19043;SDS011;9654;52.302;8.120;2023-02-28T06:51:01;15.07;;;7.10;;
19043;SDS011;9654;52.302;8.120;2023-02-28T06:53:29;10.30;;;6.43;;
19043;SDS011;9654;52.302;8.120;2023-02-28T06:55:56;14.03;;;7.37;;
19043;SDS011;9654;52.302;8.120;2023-02-28T06:58:24;10.73;;;6.33;;
19043;SDS011;9654;52.302;8.120;2023-02-28T07:00:51;11.90;;;6.13;;
19043;SDS011;9654;52.302;8.120;2023-02-28T07:03:18;13.87;;;7.90;;
19043;SDS011;9654;52.302;8.120;2023-02-28T07:05:45;13.37;;;7.60;;
19043;SDS011;9654;52.302;8.120;2023-02-28T07:08:12;14.40;;;7.80;;
19043;SDS011;9654;52.302;8.120;2023-02-28T07:10:40;13.93;;;7.53;;
19043;SDS011;9654;52.302;8.120;2023-02-28T07:13:07;12.27;;;7.10;;
19043;SDS011;9654;52.302;8.120;2023-02-28T07:15:36;11.23;;;7.83;;
19043;SDS011;9654;52.302;8.120;2023-02-28T07:18:03;11.27;;;7.20;;
19043;SDS011;9654;52.302;8.120;2023-02-28T07:20:30;12.47;;;7.40;;
19043;SDS011;9654;52.302;8.120;2023-02-28T07:22:57;13.40;;;7.80;;
19043;SDS011;9654;52.302;8.120;2023-02-28T07:25:24;15.03;;;9.13;;
19043;SDS011;9654;52.302;8.120;2023-02-28T07:27:53;18.70;;;9.67;;
19043;SDS011;9654;52.302;8.120;2023-02-28T07:30:20;15.17;;;9.10;;
19043;SDS011;9654;52.302;8.120;2023-02-28T07:32:48;14.70;;;9.20;;
19043;SDS011;9654;52.302;8.120;2023-02-28T07:35:15;16.10;;;8.77;;
19043;SDS011;9654;52.302;8.120;2023-02-28T07:37:42;16.60;;;9.27;;
19043;SDS011;9654;52.302;8.120;2023-02-28T07:40:10;14.93;;;9.27;;
19043;SDS011;9654;52.302;8.120;2023-02-28T07:42:38;17.40;;;8.57;;
19043;SDS011;9654;52.302;8.120;2023-02-28T07:45:06;14.97;;;9.47;;
19043;SDS011;9654;52.302;8.120;2023-02-28T07:47:36;15.57;;;9.00;;
19043;SDS011;9654;52.302;8.120;2023-02-28T07:50:05;14.57;;;9.10;;
19043;SDS011;9654;52.302;8.120;2023-02-28T07:52:32;16.90;;;9.40;;
19043;SDS011;9654;52.302;8.120;2023-02-28T07:54:59;17.37;;;9.83;;
19043;SDS011;9654;52.302;8.120;2023-02-28T07:57:25;13.70;;;9.10;;
19043;SDS011;9654;52.302;8.120;2023-02-28T07:59:52;18.50;;;8.90;;
19043;SDS011;9654;52.302;8.120;2023-02-28T08:02:19;19.03;;;9.33;;
19043;SDS011;9654;52.302;8.120;2023-02-28T08:04:46;16.83;;;10.17;;
19043;SDS011;9654;52.302;8.120;2023-02-28T08:07:15;14.60;;;9.00;;
19043;SDS011;9654;52.302;8.120;2023-02-28T08:09:42;16.57;;;8.43;;
19043;SDS011;9654;52.302;8.120;2023-02-28T08:12:10;16.03;;;9.90;;
19043;SDS011;9654;52.302;8.120;2023-02-28T08:14:37;16.27;;;9.50;;
19043;SDS011;9654;52.302;8.120;2023-02-28T08:17:04;16.37;;;9.23;;
19043;SDS011;9654;52.302;8.120;2023-02-28T08:19:31;15.30;;;8.57;;
19043;SDS011;9654;52.302;8.120;2023-02-28T08:21:58;20.00;;;9.57;;
19043;SDS011;9654;52.302;8.120;2023-02-28T08:24:26;16.67;;;9.03;;
19043;SDS011;9654;52.302;8.120;2023-02-28T08:26:53;14.10;;;8.60;;
19043;SDS011;9654;52.302;8.120;2023-02-28T08:29:20;12.90;;;7.47;;
19043;SDS011;9654;52.302;8.120;2023-02-28T08:31:47;12.30;;;7.13;;
19043;SDS011;9654;52.302;8.120;2023-02-28T08:34:15;16.50;;;7.27;;
19043;SDS011;9654;52.302;8.120;2023-02-28T08:36:42;12.50;;;7.37;;
19043;SDS011;9654;52.302;8.120;2023-02-28T08:39:09;13.20;;;7.37;;
19043;SDS011;9654;52.302;8.120;2023-02-28T08:41:38;20.37;;;7.37;;
19043;SDS011;9654;52.302;8.120;2023-02-28T08:44:05;12.60;;;7.37;;
19043;SDS011;9654;52.302;8.120;2023-02-28T08:46:31;12.97;;;7.47;;
19043;SDS011;9654;52.302;8.120;2023-02-28T08:48:58;15.40;;;9.23;;
19043;SDS011;9654;52.302;8.120;2023-02-28T08:51:27;18.77;;;11.37;;
19043;SDS011;9654;52.302;8.120;2023-02-28T08:53:55;24.20;;;10.47;;
19043;SDS011;9654;52.302;8.120;2023-02-28T08:56:25;9.87;;;6.37;;
19043;SDS011;9654;52.302;8.120;2023-02-28T08:58:54;11.50;;;6.67;;
19043;SDS011;9654;52.302;8.120;2023-02-28T09:01:22;6.53;;;5.10;;
19043;SDS011;9654;52.302;8.120;2023-02-28T09:03:52;6.30;;;4.17;;
19043;SDS011;9654;52.302;8.120;2023-02-28T09:06:19;4.77;;;3.97;;
19043;SDS011;9654;52.302;8.120;2023-02-28T09:08:47;4.40;;;3.13;;
19043;SDS011;9654;52.302;8.120;2023-02-28T09:11:14;3.03;;;2.80;;
19043;SDS011;9654;52.302;8.120;2023-02-28T09:13:43;4.27;;;2.57;;
19043;SDS011;9654;52.302;8.120;2023-02-28T09:16:13;5.83;;;2.73;;
19043;SDS011;9654;52.302;8.120;2023-02-28T09:18:41;3.87;;;2.23;;
19043;SDS011;9654;52.302;8.120;2023-02-28T09:21:09;2.87;;;2.13;;
19043;SDS011;9654;52.302;8.120;2023-02-28T09:23:39;3.37;;;2.07;;
19043;SDS011;9654;52.302;8.120;2023-02-28T09:26:06;2.57;;;2.37;;
19043;SDS011;9654;52.302;8.120;2023-02-28T09:28:34;2.03;;;1.80;;
19043;SDS011;9654;52.302;8.120;2023-02-28T09:31:01;2.47;;;1.87;;
19043;SDS011;9654;52.302;8.120;2023-02-28T09:33:31;2.10;;;1.60;;
19043;SDS011;9654;52.302;8.120;2023-02-28T09:35:59;1.57;;;1.47;;
19043;SDS011;9654;52.302;8.120;2023-02-28T09:38:28;1.77;;;1.63;;
19043;SDS011;9654;52.302;8.120;2023-02-28T09:40:56;1.40;;;1.23;;
19043;SDS011;9654;52.302;8.120;2023-02-28T09:43:26;2.37;;;1.50;;
19043;SDS011;9654;52.302;8.120;2023-02-28T09:45:56;2.80;;;2.07;;
19043;SDS011;9654;52.302;8.120;2023-02-28T09:48:29;2.47;;;1.37;;
19043;SDS011;9654;52.302;8.120;2023-02-28T09:51:02;2.37;;;1.43;;
19043;SDS011;9654;52.302;8.120;2023-02-28T09:53:32;1.53;;;1.40;;
19043;SDS011;9654;52.302;8.120;2023-02-28T09:56:01;1.10;;;1.10;;
19043;SDS011;9654;52.302;8.120;2023-02-28T09:58:32;1.73;;;1.60;;
19043;SDS011;9654;52.302;8.120;2023-02-28T10:01:05;6.80;;;1.70;;
19043;SDS011;9654;52.302;8.120;2023-02-28T10:03:39;2.83;;;1.30;;
19043;SDS011;9654;52.302;8.120;2023-02-28T10:06:13;3.87;;;1.60;;
19043;SDS011;9654;52.302;8.120;2023-02-28T10:08:45;3.83;;;1.10;;
19043;SDS011;9654;52.302;8.120;2023-02-28T10:11:22;1.20;;;1.10;;
19043;SDS011;9654;52.302;8.120;2023-02-28T10:13:52;1.80;;;1.23;;
19043;SDS011;9654;52.302;8.120;2023-02-28T10:16:27;1.67;;;1.10;;
19043;SDS011;9654;52.302;8.120;2023-02-28T10:19:02;2.80;;;1.10;;
19043;SDS011;9654;52.302;8.120;2023-02-28T10:21:36;2.57;;;1.10;;
19043;SDS011;9654;52.302;8.120;2023-02-28T10:24:10;3.10;;;1.07;;
19043;SDS011;9654;52.302;8.120;2023-02-28T10:26:45;2.40;;;1.20;;
19043;SDS011;9654;52.302;8.120;2023-02-28T10:29:14;1.47;;;1.30;;
19043;SDS011;9654;52.302;8.120;2023-02-28T10:31:41;3.27;;;1.50;;
19043;SDS011;9654;52.302;8.120;2023-02-28T10:34:10;1.07;;;0.97;;
19043;SDS011;9654;52.302;8.120;2023-02-28T10:36:38;1.23;;;1.13;;
19043;SDS011;9654;52.302;8.120;2023-02-28T10:42:20;1.40;;;1.30;;
19043;SDS011;9654;52.302;8.120;2023-02-28T10:45:03;1.60;;;1.30;;
19043;SDS011;9654;52.302;8.120;2023-02-28T10:47:37;2.40;;;1.20;;
19043;SDS011;9654;52.302;8.120;2023-02-28T10:50:27;2.43;;;1.40;;
19043;SDS011;9654;52.302;8.120;2023-02-28T10:53:05;1.50;;;1.20;;
19043;SDS011;9654;52.302;8.120;2023-02-28T10:55:40;1.87;;;0.80;;
19043;SDS011;9654;52.302;8.120;2023-02-28T10:58:18;0.97;;;0.63;;
19043;SDS011;9654;52.302;8.120;2023-02-28T11:00:47;4.10;;;1.00;;
19043;SDS011;9654;52.302;8.120;2023-02-28T11:03:22;2.53;;;1.27;;
19043;SDS011;9654;52.302;8.120;2023-02-28T11:05:53;0.90;;;0.90;;
19043;SDS011;9654;52.302;8.120;2023-02-28T11:08:19;1.63;;;0.97;;
19043;SDS011;9654;52.302;8.120;2023-02-28T11:10:47;1.53;;;0.90;;
19043;SDS011;9654;52.302;8.120;2023-02-28T11:13:20;1.40;;;1.30;;
19043;SDS011;9654;52.302;8.120;2023-02-28T11:15:51;2.50;;;1.50;;
19043;SDS011;9654;52.302;8.120;2023-02-28T11:18:21;1.20;;;1.10;;
19043;SDS011;9654;52.302;8.120;2023-02-28T11:20:53;2.13;;;1.60;;
19043;SDS011;9654;52.302;8.120;2023-02-28T11:23:24;1.73;;;1.40;;
19043;SDS011;9654;52.302;8.120;2023-02-28T11:25:53;1.50;;;1.40;;
19043;SDS011;9654;52.302;8.120;2023-02-28T11:28:26;1.80;;;1.30;;
19043;SDS011;9654;52.302;8.120;2023-02-28T11:31:00;5.23;;;1.63;;
19043;SDS011;9654;52.302;8.120;2023-02-28T11:33:30;9.20;;;1.83;;
19043;SDS011;9654;52.302;8.120;2023-02-28T11:36:01;14.33;;;5.60;;
19043;SDS011;9654;52.302;8.120;2023-02-28T11:38:30;37.90;;;19.37;;
19043;SDS011;9654;52.302;8.120;2023-02-28T11:41:05;44.50;;;20.63;;
19043;SDS011;9654;52.302;8.120;2023-02-28T11:46:35;4.33;;;2.33;;
19043;SDS011;9654;52.302;8.120;2023-02-28T11:49:13;2.07;;;1.63;;
19043;SDS011;9654;52.302;8.120;2023-02-28T11:51:51;3.10;;;2.40;;
19043;SDS011;9654;52.302;8.120;2023-02-28T11:54:35;2.10;;;1.60;;
19043;SDS011;9654;52.302;8.120;2023-02-28T11:57:33;1.90;;;1.77;;
19043;SDS011;9654;52.302;8.120;2023-02-28T12:00:19;8.07;;;1.80;;
19043;SDS011;9654;52.302;8.120;2023-02-28T12:02:59;1.77;;;1.67;;
19043;SDS011;9654;52.302;8.120;2023-02-28T12:05:36;3.57;;;1.90;;
19043;SDS011;9654;52.302;8.120;2023-02-28T12:08:15;2.43;;;1.70;;
19043;SDS011;9654;52.302;8.120;2023-02-28T12:10:54;2.07;;;1.50;;
19043;SDS011;9654;52.302;8.120;2023-02-28T12:13:29;2.07;;;1.73;;
19043;SDS011;9654;52.302;8.120;2023-02-28T12:16:22;1.80;;;1.70;;
19043;SDS011;9654;52.302;8.120;2023-02-28T12:18:59;1.40;;;1.30;;
19043;SDS011;9654;52.302;8.120;2023-02-28T12:21:44;2.33;;;1.50;;
19043;SDS011;9654;52.302;8.120;2023-02-28T12:24:30;1.97;;;1.43;;
19043;SDS011;9654;52.302;8.120;2023-02-28T12:27:20;2.37;;;1.77;;
19043;SDS011;9654;52.302;8.120;2023-02-28T12:29:51;1.63;;;1.53;;
19043;SDS011;9654;52.302;8.120;2023-02-28T12:32:23;1.73;;;1.60;;
19043;SDS011;9654;52.302;8.120;2023-02-28T12:34:56;4.20;;;1.77;;
19043;SDS011;9654;52.302;8.120;2023-02-28T12:37:28;1.90;;;1.80;;
19043;SDS011;9654;52.302;8.120;2023-02-28T12:40:03;2.97;;;2.10;;
19043;SDS011;9654;52.302;8.120;2023-02-28T12:42:34;3.73;;;1.90;;
19043;SDS011;9654;52.302;8.120;2023-02-28T12:45:07;4.40;;;1.63;;
19043;SDS011;9654;52.302;8.120;2023-02-28T12:47:38;2.33;;;2.13;;
19043;SDS011;9654;52.302;8.120;2023-02-28T12:50:09;2.80;;;1.87;;
19043;SDS011;9654;52.302;8.120;2023-02-28T12:52:39;3.43;;;1.93;;
19043;SDS011;9654;52.302;8.120;2023-02-28T12:55:11;2.97;;;2.17;;
19043;SDS011;9654;52.302;8.120;2023-02-28T12:57:45;3.50;;;1.90;;
19043;SDS011;9654;52.302;8.120;2023-02-28T13:00:16;13.73;;;2.70;;
19043;SDS011;9654;52.302;8.120;2023-02-28T13:02:57;6.77;;;1.80;;
19043;SDS011;9654;52.302;8.120;2023-02-28T13:06:00;8.70;;;2.03;;
19043;SDS011;9654;52.302;8.120;2023-02-28T13:08:52;6.67;;;1.93;;
19043;SDS011;9654;52.302;8.120;2023-02-28T13:11:29;2.00;;;1.90;;
19043;SDS011;9654;52.302;8.120;2023-02-28T13:14:00;9.00;;;2.93;;
19043;SDS011;9654;52.302;8.120;2023-02-28T13:16:28;2.67;;;1.80;;
19043;SDS011;9654;52.302;8.120;2023-02-28T13:19:16;3.80;;;1.97;;
19043;SDS011;9654;52.302;8.120;2023-02-28T13:21:46;3.50;;;1.97;;
19043;SDS011;9654;52.302;8.120;2023-02-28T13:24:35;2.00;;;1.90;;
19043;SDS011;9654;52.302;8.120;2023-02-28T13:33:17;2.90;;;1.80;;
19043;SDS011;9654;52.302;8.120;2023-02-28T13:35:52;2.57;;;1.77;;
19043;SDS011;9654;52.302;8.120;2023-02-28T13:38:35;2.20;;;2.00;;
19043;SDS011;9654;52.302;8.120;2023-02-28T13:44:22;2.67;;;1.80;;
19043;SDS011;9654;52.302;8.120;2023-02-28T13:49:53;2.10;;;1.90;;
19043;SDS011;9654;52.302;8.120;2023-02-28T13:52:23;4.27;;;1.90;;
19043;SDS011;9654;52.302;8.120;2023-02-28T13:54:59;4.43;;;2.30;;
19043;SDS011;9654;52.302;8.120;2023-02-28T13:57:50;1.80;;;1.70;;
19043;SDS011;9654;52.302;8.120;2023-02-28T14:00:33;2.37;;;2.00;;
19043;SDS011;9654;52.302;8.120;2023-02-28T14:03:18;4.33;;;2.00;;
19043;SDS011;9654;52.302;8.120;2023-02-28T14:06:14;4.93;;;2.00;;
19043;SDS011;9654;52.302;8.120;2023-02-28T14:08:51;3.37;;;1.70;;
19043;SDS011;9654;52.302;8.120;2023-02-28T14:11:31;2.53;;;1.73;;
19043;SDS011;9654;52.302;8.120;2023-02-28T14:13:59;3.03;;;2.20;;
19043;SDS011;9654;52.302;8.120;2023-02-28T14:16:34;2.13;;;1.93;;
19043;SDS011;9654;52.302;8.120;2023-02-28T14:19:09;3.50;;;1.90;;
19043;SDS011;9654;52.302;8.120;2023-02-28T14:21:38;2.23;;;1.87;;
19043;SDS011;9654;52.302;8.120;2023-02-28T14:30:09;4.60;;;2.40;;
19043;SDS011;9654;52.302;8.120;2023-02-28T14:32:45;2.40;;;2.00;;
19043;SDS011;9654;52.302;8.120;2023-02-28T14:35:22;6.13;;;2.20;;
19043;SDS011;9654;52.302;8.120;2023-02-28T14:38:04;2.57;;;2.10;;
19043;SDS011;9654;52.302;8.120;2023-02-28T14:40:32;2.20;;;2.00;;
19043;SDS011;9654;52.302;8.120;2023-02-28T14:43:01;2.13;;;1.90;;
19043;SDS011;9654;52.302;8.120;2023-02-28T14:45:31;4.57;;;3.00;;
19043;SDS011;9654;52.302;8.120;2023-02-28T14:48:01;10.03;;;2.20;;
19043;SDS011;9654;52.302;8.120;2023-02-28T14:50:31;5.87;;;2.00;;
19043;SDS011;9654;52.302;8.120;2023-02-28T14:52:59;3.13;;;1.87;;
19043;SDS011;9654;52.302;8.120;2023-02-28T14:55:28;2.53;;;2.20;;
19043;SDS011;9654;52.302;8.120;2023-02-28T14:57:57;2.30;;;2.10;;
19043;SDS011;9654;52.302;8.120;2023-02-28T15:00:28;1.90;;;1.80;;
19043;SDS011;9654;52.302;8.120;2023-02-28T15:02:57;3.40;;;2.20;;
19043;SDS011;9654;52.302;8.120;2023-02-28T15:05:28;2.50;;;2.30;;
19043;SDS011;9654;52.302;8.120;2023-02-28T15:08:04;2.67;;;1.90;;
19043;SDS011;9654;52.302;8.120;2023-02-28T15:10:33;6.43;;;3.10;;
19043;SDS011;9654;52.302;8.120;2023-02-28T15:13:01;2.30;;;2.10;;
19043;SDS011;9654;52.302;8.120;2023-02-28T15:15:35;3.73;;;2.20;;
19043;SDS011;9654;52.302;8.120;2023-02-28T15:18:10;4.20;;;2.60;;
19043;SDS011;9654;52.302;8.120;2023-02-28T15:20:44;2.57;;;2.37;;
19043;SDS011;9654;52.302;8.120;2023-02-28T15:23:11;5.13;;;2.80;;
19043;SDS011;9654;52.302;8.120;2023-02-28T15:25:39;3.53;;;2.73;;
19043;SDS011;9654;52.302;8.120;2023-02-28T15:28:09;3.33;;;2.20;;
19043;SDS011;9654;52.302;8.120;2023-02-28T15:30:50;3.20;;;2.27;;
19043;SDS011;9654;52.302;8.120;2023-02-28T15:33:19;3.77;;;2.17;;
19043;SDS011;9654;52.302;8.120;2023-02-28T15:35:49;4.37;;;2.43;;
19043;SDS011;9654;52.302;8.120;2023-02-28T15:38:18;2.50;;;2.30;;
19043;SDS011;9654;52.302;8.120;2023-02-28T15:40:50;3.37;;;2.63;;
19043;SDS011;9654;52.302;8.120;2023-02-28T15:43:23;2.37;;;2.00;;
19043;SDS011;9654;52.302;8.120;2023-02-28T15:45:52;2.50;;;2.30;;
19043;SDS011;9654;52.302;8.120;2023-02-28T15:48:24;4.07;;;2.70;;